createdAt,value
2023-09-06T00:00:13.147Z,1006.95
2023-09-06T00:01:13.231Z,1006.99
2023-09-06T00:02:13.202Z,1006.96
2023-09-06T00:03:13.426Z,1006.98
2023-09-06T00:04:13.428Z,1006.97
2023-09-06T00:05:13.404Z,1006.94
2023-09-06T00:06:13.302Z,1006.98
2023-09-06T00:07:13.312Z,1006.97
2023-09-06T00:08:13.340Z,1006.94
2023-09-06T00:09:13.380Z,1006.97
2023-09-06T00:10:13.435Z,1006.99
2023-09-06T00:11:13.420Z,1006.95
2023-09-06T00:12:13.447Z,1006.97
2023-09-06T00:13:13.493Z,1006.95
2023-09-06T00:14:13.491Z,1006.96
2023-09-06T00:15:13.551Z,1006.94
2023-09-06T00:16:13.549Z,1006.96
2023-09-06T00:17:13.579Z,1006.96
2023-09-06T00:18:13.633Z,1006.94
2023-09-06T00:19:13.718Z,1006.91
2023-09-06T00:20:13.648Z,1006.93
2023-09-06T00:21:13.683Z,1006.98
2023-09-06T00:22:13.697Z,1006.95
2023-09-06T00:23:13.733Z,1006.94
2023-09-06T00:24:13.756Z,1006.92
2023-09-06T00:25:13.790Z,1006.92
2023-09-06T00:26:13.836Z,1006.96
2023-09-06T00:27:13.856Z,1006.93
2023-09-06T00:28:13.859Z,1006.95
2023-09-06T00:29:13.883Z,1006.91
2023-09-06T00:30:13.908Z,1006.93
2023-09-06T00:31:13.997Z,1006.92
2023-09-06T00:32:14.015Z,1006.91
2023-09-06T00:33:13.981Z,1006.94
2023-09-06T00:34:14.006Z,1006.99
2023-09-06T00:35:14.036Z,1006.96
2023-09-06T00:36:14.086Z,1006.94
2023-09-06T00:37:14.109Z,1006.98
2023-09-06T00:38:14.110Z,1007.02
2023-09-06T00:39:14.141Z,1006.99
2023-09-06T00:40:14.160Z,1006.98
2023-09-06T00:41:14.227Z,1007.03
2023-09-06T00:42:14.213Z,1007.03
2023-09-06T00:43:14.233Z,1007.06
2023-09-06T00:44:14.261Z,1007.02
2023-09-06T00:45:14.294Z,1007.04
2023-09-06T00:46:14.333Z,1007.05
2023-09-06T00:47:14.370Z,1007.06
2023-09-06T00:48:14.367Z,1007.09
2023-09-06T00:49:14.420Z,1007.04
2023-09-06T00:50:14.418Z,1007.06
2023-09-06T00:51:14.440Z,1007.03
2023-09-06T00:52:14.499Z,1007.01
2023-09-06T00:53:14.495Z,1007.00
2023-09-06T00:54:14.524Z,1007.02
2023-09-06T00:55:14.560Z,1007.05
2023-09-06T00:56:14.572Z,1007.03
2023-09-06T00:57:14.596Z,1007.07
2023-09-06T00:58:14.722Z,1007.07
2023-09-06T00:59:14.648Z,1007.07
2023-09-06T01:00:14.672Z,1007.05
2023-09-06T01:01:14.764Z,1007.07
2023-09-06T01:02:14.809Z,1007.06
2023-09-06T01:03:14.989Z,1007.06
2023-09-06T01:04:14.795Z,1007.03
2023-09-06T01:05:14.819Z,1007.04
2023-09-06T01:06:14.858Z,1007.04
2023-09-06T01:07:14.859Z,1007.02
2023-09-06T01:08:14.883Z,1007.06
2023-09-06T01:09:14.901Z,1007.03
2023-09-06T01:10:14.930Z,1007.07
2023-09-06T01:11:14.953Z,1007.05
2023-09-06T01:12:14.986Z,1007.08
2023-09-06T01:13:15.005Z,1007.06
2023-09-06T01:14:15.030Z,1007.09
2023-09-06T01:15:15.089Z,1007.13
2023-09-06T01:16:15.112Z,1007.09
2023-09-06T01:17:15.177Z,1007.06
2023-09-06T01:18:15.170Z,1007.08
2023-09-06T01:19:15.168Z,1007.13
2023-09-06T01:20:15.191Z,1007.13
2023-09-06T01:21:15.220Z,1007.14
2023-09-06T01:22:15.265Z,1007.11
2023-09-06T01:23:15.288Z,1007.14
2023-09-06T01:24:15.322Z,1007.13
2023-09-06T01:25:15.315Z,1007.18
2023-09-06T01:26:15.381Z,1007.17
2023-09-06T01:27:15.362Z,1007.20
2023-09-06T01:28:15.486Z,1007.22
2023-09-06T01:29:15.438Z,1007.24
2023-09-06T01:30:15.448Z,1007.25
2023-09-06T01:31:15.592Z,1007.27
2023-09-06T01:32:15.491Z,1007.24
2023-09-06T01:33:15.541Z,1007.22
2023-09-06T01:34:15.594Z,1007.25
2023-09-06T01:35:15.568Z,1007.27
2023-09-06T01:36:15.619Z,1007.22
2023-09-06T01:37:15.734Z,1007.28
2023-09-06T01:38:15.639Z,1007.24
2023-09-06T01:39:15.668Z,1007.24
2023-09-06T01:40:15.707Z,1007.21
2023-09-06T01:41:15.729Z,1007.21
2023-09-06T01:42:15.798Z,1007.18
2023-09-06T01:43:15.824Z,1007.16
2023-09-06T01:44:15.826Z,1007.18
2023-09-06T01:45:15.839Z,1007.17
2023-09-06T01:46:15.940Z,1007.19
2023-09-06T01:47:15.912Z,1007.20
2023-09-06T01:48:15.928Z,1007.19
2023-09-06T01:49:16.011Z,1007.18
2023-09-06T01:50:15.964Z,1007.18
2023-09-06T01:51:15.974Z,1007.20
2023-09-06T01:52:16.107Z,1007.21
2023-09-06T01:53:16.085Z,1007.20
2023-09-06T01:54:16.070Z,1007.20
2023-09-06T01:55:16.126Z,1007.17
2023-09-06T01:56:16.120Z,1007.17
2023-09-06T01:57:16.129Z,1007.17
2023-09-06T01:58:16.235Z,1007.19
2023-09-06T01:59:16.220Z,1007.18
2023-09-06T02:00:16.210Z,1007.14
2023-09-06T02:01:16.303Z,1007.19
2023-09-06T02:02:16.257Z,1007.19
2023-09-06T02:03:16.352Z,1007.18
2023-09-06T02:04:16.389Z,1007.18
2023-09-06T02:05:16.341Z,1007.16
2023-09-06T02:06:16.367Z,1007.13
2023-09-06T02:07:16.413Z,1007.14
2023-09-06T02:08:16.432Z,1007.17
2023-09-06T02:09:16.488Z,1007.17
2023-09-06T02:10:16.516Z,1007.21
2023-09-06T02:11:16.496Z,1007.20
2023-09-06T02:12:16.518Z,1007.24
2023-09-06T02:13:16.616Z,1007.23
2023-09-06T02:14:16.645Z,1007.28
2023-09-06T02:15:16.594Z,1007.27
2023-09-06T02:16:16.692Z,1007.29
2023-09-06T02:17:16.668Z,1007.27
2023-09-06T02:18:16.832Z,1007.29
2023-09-06T02:19:16.729Z,1007.26
2023-09-06T02:20:16.757Z,1007.27
2023-09-06T02:21:16.748Z,1007.25
2023-09-06T02:22:16.814Z,1007.24
2023-09-06T02:23:16.799Z,1007.24
2023-09-06T02:24:16.818Z,1007.28
2023-09-06T02:25:16.875Z,1007.28
2023-09-06T02:26:16.873Z,1007.29
2023-09-06T02:27:16.890Z,1007.29
2023-09-06T02:28:16.956Z,1007.31
2023-09-06T02:29:16.942Z,1007.27
2023-09-06T02:30:17.052Z,1007.28
2023-09-06T02:31:17.062Z,1007.28
2023-09-06T02:32:17.130Z,1007.29
2023-09-06T02:33:17.125Z,1007.27
2023-09-06T02:34:17.107Z,1007.23
2023-09-06T02:35:17.141Z,1007.26
2023-09-06T02:36:17.121Z,1007.30
2023-09-06T02:37:17.218Z,1007.31
2023-09-06T02:38:17.166Z,1007.31
2023-09-06T02:39:17.196Z,1007.32
2023-09-06T02:40:17.257Z,1007.32
2023-09-06T02:41:17.246Z,1007.34
2023-09-06T02:42:17.306Z,1007.40
2023-09-06T02:43:17.342Z,1007.36
2023-09-06T02:44:17.328Z,1007.34
2023-09-06T02:45:17.403Z,1007.37
2023-09-06T02:46:17.520Z,1007.41
2023-09-06T02:47:17.413Z,1007.37
2023-09-06T02:48:17.428Z,1007.40
2023-09-06T02:49:17.448Z,1007.36
2023-09-06T02:50:17.500Z,1007.40
2023-09-06T02:51:17.550Z,1007.41
2023-09-06T02:52:17.522Z,1007.44
2023-09-06T02:53:17.552Z,1007.42
2023-09-06T02:54:17.570Z,1007.43
2023-09-06T02:55:17.642Z,1007.45
2023-09-06T02:56:17.618Z,1007.44
2023-09-06T02:57:17.649Z,1007.47
2023-09-06T02:58:17.669Z,1007.45
2023-09-06T02:59:17.698Z,1007.46
2023-09-06T03:00:17.750Z,1007.47
2023-09-06T03:01:17.863Z,1007.43
2023-09-06T03:02:17.799Z,1007.45
2023-09-06T03:03:17.871Z,1007.45
2023-09-06T03:04:17.849Z,1007.46
2023-09-06T03:05:17.876Z,1007.46
2023-09-06T03:06:17.892Z,1007.52
2023-09-06T03:07:17.939Z,1007.51
2023-09-06T03:08:17.923Z,1007.55
2023-09-06T03:09:17.956Z,1007.52
2023-09-06T03:10:17.974Z,1007.52
2023-09-06T03:11:17.995Z,1007.53
2023-09-06T03:12:18.025Z,1007.54
2023-09-06T03:13:18.076Z,1007.59
2023-09-06T03:14:18.072Z,1007.56
2023-09-06T03:15:18.103Z,1007.61
2023-09-06T03:16:18.238Z,1007.58
2023-09-06T03:17:18.152Z,1007.58
2023-09-06T03:18:18.169Z,1007.61
2023-09-06T03:19:18.274Z,1007.62
2023-09-06T03:20:18.232Z,1007.59
2023-09-06T03:21:18.265Z,1007.62
2023-09-06T03:22:18.294Z,1007.60
2023-09-06T03:23:18.662Z,1007.63
2023-09-06T03:24:18.318Z,1007.60
2023-09-06T03:25:18.385Z,1007.62
2023-09-06T03:26:18.368Z,1007.64
2023-09-06T03:27:18.443Z,1007.64
2023-09-06T03:28:18.450Z,1007.63
2023-09-06T03:29:18.459Z,1007.65
2023-09-06T03:30:18.463Z,1007.63
2023-09-06T03:31:18.568Z,1007.64
2023-09-06T03:32:18.613Z,1007.58
2023-09-06T03:33:18.538Z,1007.61
2023-09-06T03:34:18.557Z,1007.60
2023-09-06T03:35:18.634Z,1007.59
2023-09-06T03:36:18.629Z,1007.59
2023-09-06T03:37:18.636Z,1007.62
2023-09-06T03:38:18.674Z,1007.60
2023-09-06T03:39:18.689Z,1007.64
2023-09-06T03:40:18.739Z,1007.62
2023-09-06T03:41:18.825Z,1007.58
2023-09-06T03:42:18.753Z,1007.58
2023-09-06T03:43:18.781Z,1007.61
2023-09-06T03:44:18.899Z,1007.59
2023-09-06T03:45:18.839Z,1007.61
2023-09-06T03:46:18.880Z,1007.59
2023-09-06T03:47:19.084Z,1007.60
2023-09-06T03:48:19.157Z,1007.60
2023-09-06T03:49:19.005Z,1007.60
2023-09-06T03:50:18.995Z,1007.62
2023-09-06T03:51:19.028Z,1007.59
2023-09-06T03:52:18.995Z,1007.64
2023-09-06T03:53:19.024Z,1007.60
2023-09-06T03:54:19.055Z,1007.64
2023-09-06T03:55:19.096Z,1007.62
2023-09-06T03:56:19.161Z,1007.63
2023-09-06T03:57:19.137Z,1007.63
2023-09-06T03:58:19.148Z,1007.60
2023-09-06T03:59:19.183Z,1007.64
2023-09-06T04:00:19.227Z,1007.61
2023-09-06T04:01:19.283Z,1007.59
2023-09-06T04:02:19.319Z,1007.59
2023-09-06T04:03:19.524Z,1007.62
2023-09-06T04:04:19.383Z,1007.59
2023-09-06T04:05:19.409Z,1007.61
2023-09-06T04:06:19.355Z,1007.55
2023-09-06T04:07:19.368Z,1007.57
2023-09-06T04:08:19.708Z,1007.57
2023-09-06T04:09:19.432Z,1007.61
2023-09-06T04:10:19.448Z,1007.58
2023-09-06T04:11:19.549Z,1007.58
2023-09-06T04:12:19.513Z,1007.59
2023-09-06T04:13:19.517Z,1007.61
2023-09-06T04:14:19.547Z,1007.64
2023-09-06T04:15:19.571Z,1007.63
2023-09-06T04:16:19.656Z,1007.65
2023-09-06T04:17:19.609Z,1007.65
2023-09-06T04:18:19.760Z,1007.69
2023-09-06T04:19:19.655Z,1007.71
2023-09-06T04:20:19.686Z,1007.68
2023-09-06T04:21:20.989Z,1007.68
2023-09-06T04:22:19.761Z,1007.70
2023-09-06T04:23:19.815Z,1007.67
2023-09-06T04:24:19.781Z,1007.69
2023-09-06T04:25:19.810Z,1007.71
2023-09-06T04:26:19.886Z,1007.75
2023-09-06T04:27:19.882Z,1007.74
2023-09-06T04:28:19.870Z,1007.72
2023-09-06T04:29:20.070Z,1007.71
2023-09-06T04:30:19.927Z,1007.75
2023-09-06T04:31:19.987Z,1007.72
2023-09-06T04:32:20.056Z,1007.76
2023-09-06T04:33:20.002Z,1007.78
2023-09-06T04:34:20.016Z,1007.80
2023-09-06T04:35:20.101Z,1007.76
2023-09-06T04:36:20.106Z,1007.80
2023-09-06T04:37:20.151Z,1007.81
2023-09-06T04:38:20.136Z,1007.80
2023-09-06T04:39:20.140Z,1007.85
2023-09-06T04:40:20.179Z,1007.81
2023-09-06T04:41:20.234Z,1007.86
2023-09-06T04:42:20.251Z,1007.86
2023-09-06T04:43:20.237Z,1007.89
2023-09-06T04:44:20.291Z,1007.89
2023-09-06T04:45:20.298Z,1007.90
2023-09-06T04:46:20.337Z,1007.92
2023-09-06T04:47:20.387Z,1007.96
2023-09-06T04:48:20.408Z,1007.99
2023-09-06T04:49:20.408Z,1007.96
2023-09-06T04:50:20.432Z,1007.95
2023-09-06T04:51:20.427Z,1007.94
2023-09-06T04:52:20.448Z,1007.96
2023-09-06T04:53:20.486Z,1007.95
2023-09-06T04:54:20.588Z,1007.99
2023-09-06T04:55:20.533Z,1007.94
2023-09-06T04:56:20.546Z,1007.95
2023-09-06T04:57:20.632Z,1007.95
2023-09-06T04:58:20.617Z,1007.96
2023-09-06T04:59:20.722Z,1007.97
2023-09-06T05:00:20.754Z,1007.95
2023-09-06T05:01:20.736Z,1007.97
2023-09-06T05:02:20.716Z,1008.00
2023-09-06T05:03:21.021Z,1008.02
2023-09-06T05:04:20.797Z,1008.02
2023-09-06T05:05:20.814Z,1008.05
2023-09-06T05:06:20.789Z,1008.03
2023-09-06T05:07:20.812Z,1008.02
2023-09-06T05:08:20.878Z,1008.04
2023-09-06T05:09:20.917Z,1008.06
2023-09-06T05:10:20.889Z,1008.05
2023-09-06T05:11:20.936Z,1008.07
2023-09-06T05:12:20.930Z,1008.08
2023-09-06T05:13:20.959Z,1008.06
2023-09-06T05:14:20.999Z,1008.11
2023-09-06T05:15:21.039Z,1008.10
2023-09-06T05:16:21.080Z,1008.08
2023-09-06T05:17:21.076Z,1008.09
2023-09-06T05:18:21.090Z,1008.09
2023-09-06T05:19:21.110Z,1008.10
2023-09-06T05:20:21.158Z,1008.10
2023-09-06T05:21:21.158Z,1008.14
2023-09-06T05:22:21.166Z,1008.16
2023-09-06T05:23:21.273Z,1008.18
2023-09-06T05:24:21.218Z,1008.21
2023-09-06T05:25:21.334Z,1008.23
2023-09-06T05:26:21.345Z,1008.23
2023-09-06T05:27:21.294Z,1008.28
2023-09-06T05:28:21.342Z,1008.25
2023-09-06T05:29:21.351Z,1008.33
2023-09-06T05:30:21.397Z,1008.30
2023-09-06T05:31:21.564Z,1008.31
2023-09-06T05:32:21.409Z,1008.31
2023-09-06T05:33:21.440Z,1008.33
2023-09-06T05:34:21.468Z,1008.30
2023-09-06T05:35:21.513Z,1008.29
2023-09-06T05:36:21.509Z,1008.30
2023-09-06T05:37:21.584Z,1008.28
2023-09-06T05:38:21.561Z,1008.29
2023-09-06T05:39:21.587Z,1008.31
2023-09-06T05:40:21.643Z,1008.30
2023-09-06T05:41:21.642Z,1008.29
2023-09-06T05:42:21.647Z,1008.31
2023-09-06T05:43:21.687Z,1008.31
2023-09-06T05:44:21.696Z,1008.31
2023-09-06T05:45:21.740Z,1008.25
2023-09-06T05:46:33.112Z,1008.27
2023-09-06T05:47:21.963Z,1008.25
2023-09-06T05:48:21.835Z,1008.26
2023-09-06T05:49:21.819Z,1008.27
2023-09-06T05:50:21.848Z,1008.26
2023-09-06T05:51:21.870Z,1008.29
2023-09-06T05:52:21.894Z,1008.30
2023-09-06T05:53:22.020Z,1008.30
2023-09-06T05:54:21.940Z,1008.31
2023-09-06T05:55:21.970Z,1008.31
2023-09-06T05:56:21.996Z,1008.35
2023-09-06T05:57:22.032Z,1008.34
2023-09-06T05:58:22.069Z,1008.34
2023-09-06T05:59:22.141Z,1008.31
2023-09-06T06:00:22.104Z,1008.33
2023-09-06T06:01:22.159Z,1008.34
2023-09-06T06:02:22.240Z,1008.30
2023-09-06T06:03:22.346Z,1008.31
2023-09-06T06:04:22.217Z,1008.32
2023-09-06T06:05:22.221Z,1008.33
2023-09-06T06:06:22.232Z,1008.32
2023-09-06T06:07:22.258Z,1008.30
2023-09-06T06:08:22.342Z,1008.32
2023-09-06T06:09:22.360Z,1008.33
2023-09-06T06:10:22.335Z,1008.32
2023-09-06T06:11:22.788Z,1008.35
2023-09-06T06:12:22.384Z,1008.29
2023-09-06T06:13:22.410Z,1008.30
2023-09-06T06:14:22.560Z,1008.30
2023-09-06T06:15:22.488Z,1008.28
2023-09-06T06:16:22.516Z,1008.33
2023-09-06T06:17:22.573Z,1008.31
2023-09-06T06:18:22.564Z,1008.30
2023-09-06T06:19:22.655Z,1008.32
2023-09-06T06:20:30.821Z,1008.34
2023-09-06T06:21:22.670Z,1008.36
2023-09-06T06:22:22.671Z,1008.37
2023-09-06T06:23:22.661Z,1008.34
2023-09-06T06:24:22.734Z,1008.38
2023-09-06T06:25:22.700Z,1008.36
2023-09-06T06:26:22.737Z,1008.35
2023-09-06T06:27:22.879Z,1008.38
2023-09-06T06:28:22.836Z,1008.37
2023-09-06T06:29:22.996Z,1008.36
2023-09-06T06:30:22.864Z,1008.38
2023-09-06T06:31:22.906Z,1008.35
2023-09-06T06:32:22.948Z,1008.39
2023-09-06T06:33:22.907Z,1008.41
2023-09-06T06:34:22.951Z,1008.44
2023-09-06T06:35:23.011Z,1008.47
2023-09-06T06:36:22.973Z,1008.44
2023-09-06T06:37:23.027Z,1008.42
2023-09-06T06:38:23.053Z,1008.43
2023-09-06T06:39:23.058Z,1008.44
2023-09-06T06:40:23.106Z,1008.41
2023-09-06T06:41:23.125Z,1008.42
2023-09-06T06:42:23.141Z,1008.47
2023-09-06T06:43:23.149Z,1008.45
2023-09-06T06:44:23.217Z,1008.47
2023-09-06T06:45:23.196Z,1008.46
2023-09-06T06:46:23.225Z,1008.51
2023-09-06T06:47:23.396Z,1008.48
2023-09-06T06:48:23.271Z,1008.52
2023-09-06T06:49:23.295Z,1008.51
2023-09-06T06:50:23.659Z,1008.49
2023-09-06T06:51:23.401Z,1008.50
2023-09-06T06:52:23.368Z,1008.51
2023-09-06T06:53:23.441Z,1008.52
2023-09-06T06:54:23.457Z,1008.54
2023-09-06T06:55:23.445Z,1008.53
2023-09-06T06:56:23.568Z,1008.55
2023-09-06T06:57:23.500Z,1008.56
2023-09-06T06:58:23.515Z,1008.58
2023-09-06T06:59:23.616Z,1008.56
2023-09-06T07:00:23.597Z,1008.58
2023-09-06T07:01:23.601Z,1008.59
2023-09-06T07:02:23.673Z,1008.55
2023-09-06T07:03:23.714Z,1008.58
2023-09-06T07:04:23.672Z,1008.59
2023-09-06T07:05:23.721Z,1008.55
2023-09-06T07:06:23.716Z,1008.54
2023-09-06T07:07:23.780Z,1008.57
2023-09-06T07:08:23.807Z,1008.59
2023-09-06T07:09:23.805Z,1008.58
2023-09-06T07:10:23.819Z,1008.60
2023-09-06T07:11:23.908Z,1008.57
2023-09-06T07:12:23.871Z,1008.61
2023-09-06T07:13:23.894Z,1008.60
2023-09-06T07:14:24.006Z,1008.60
2023-09-06T07:15:23.984Z,1008.58
2023-09-06T07:16:24.079Z,1008.61
2023-09-06T07:17:24.021Z,1008.61
2023-09-06T07:18:24.142Z,1008.60
2023-09-06T07:19:24.043Z,1008.63
2023-09-06T07:20:24.129Z,1008.60
2023-09-06T07:21:24.100Z,1008.58
2023-09-06T07:22:24.141Z,1008.60
2023-09-06T07:23:24.184Z,1008.62
2023-09-06T07:24:24.197Z,1008.56
2023-09-06T07:25:24.195Z,1008.62
2023-09-06T07:26:24.303Z,1008.60
2023-09-06T07:27:24.242Z,1008.56
2023-09-06T07:28:24.316Z,1008.58
2023-09-06T07:29:24.323Z,1008.55
2023-09-06T07:30:24.350Z,1008.59
2023-09-06T07:31:24.413Z,1008.53
2023-09-06T07:32:25.197Z,1008.49
2023-09-06T07:33:24.408Z,1008.50
2023-09-06T07:34:24.481Z,1008.51
2023-09-06T07:35:24.508Z,1008.51
2023-09-06T07:36:24.468Z,1008.50
2023-09-06T07:37:24.508Z,1008.51
2023-09-06T07:38:24.555Z,1008.53
2023-09-06T07:39:24.541Z,1008.53
2023-09-06T07:40:24.622Z,1008.57
2023-09-06T07:41:24.645Z,1008.55
2023-09-06T07:42:24.623Z,1008.55
2023-09-06T07:43:24.646Z,1008.53
2023-09-06T07:44:24.677Z,1008.58
2023-09-06T07:45:24.752Z,1008.55
2023-09-06T07:46:24.777Z,1008.60
2023-09-06T07:47:24.822Z,1008.60
2023-09-06T07:48:24.929Z,1008.64
2023-09-06T07:49:27.184Z,1008.65
2023-09-06T07:50:24.887Z,1008.65
2023-09-06T07:51:24.865Z,1008.66
2023-09-06T07:52:24.876Z,1008.63
2023-09-06T07:53:24.921Z,1008.64
2023-09-06T07:54:24.925Z,1008.67
2023-09-06T07:55:24.980Z,1008.65
2023-09-06T07:56:25.061Z,1008.66
2023-09-06T07:57:25.014Z,1008.66
2023-09-06T07:58:25.153Z,1008.64
2023-09-06T07:59:25.086Z,1008.61
2023-09-06T08:00:25.085Z,1008.64
2023-09-06T08:01:25.181Z,1008.62
2023-09-06T08:02:25.132Z,1008.59
2023-09-06T08:03:25.211Z,1008.61
2023-09-06T08:04:25.186Z,1008.66
2023-09-06T08:05:25.206Z,1008.62
2023-09-06T08:06:25.405Z,1008.62
2023-09-06T08:07:25.285Z,1008.64
2023-09-06T08:08:25.289Z,1008.62
2023-09-06T08:09:25.327Z,1008.63
2023-09-06T08:10:25.375Z,1008.65
2023-09-06T08:11:25.396Z,1008.63
2023-09-06T08:12:25.413Z,1008.63
2023-09-06T08:13:25.416Z,1008.62
2023-09-06T08:14:25.442Z,1008.64
2023-09-06T08:15:25.495Z,1008.62
2023-09-06T08:16:25.522Z,1008.63
2023-09-06T08:17:25.627Z,1008.66
2023-09-06T08:18:25.643Z,1008.64
2023-09-06T08:19:25.574Z,1008.65
2023-09-06T08:20:25.595Z,1008.65
2023-09-06T08:21:25.632Z,1008.69
2023-09-06T08:22:39.146Z,1008.67
2023-09-06T08:23:25.689Z,1008.69
2023-09-06T08:24:25.761Z,1008.68
2023-09-06T08:25:25.748Z,1008.68
2023-09-06T08:26:25.755Z,1008.60
2023-09-06T08:27:25.820Z,1008.63
2023-09-06T08:28:25.824Z,1008.63
2023-09-06T08:29:25.896Z,1008.65
2023-09-06T08:30:25.919Z,1008.64
2023-09-06T08:31:26.040Z,1008.65
2023-09-06T08:32:26.118Z,1008.63
2023-09-06T08:33:26.139Z,1008.66
2023-09-06T08:34:25.986Z,1008.66
2023-09-06T08:35:26.028Z,1008.64
2023-09-06T08:36:26.074Z,1008.64
2023-09-06T08:37:26.054Z,1008.66
2023-09-06T08:38:26.138Z,1008.66
2023-09-06T08:39:26.178Z,1008.65
2023-09-06T08:40:26.142Z,1008.64
2023-09-06T08:41:26.161Z,1008.68
2023-09-06T08:42:26.219Z,1008.65
2023-09-06T08:43:26.240Z,1008.65
2023-09-06T08:44:26.281Z,1008.65
2023-09-06T08:45:26.303Z,1008.64
2023-09-06T08:46:26.370Z,1008.65
2023-09-06T08:47:26.379Z,1008.65
2023-09-06T08:48:26.410Z,1008.65
2023-09-06T08:49:26.405Z,1008.65
2023-09-06T08:50:26.426Z,1008.63
2023-09-06T08:51:26.468Z,1008.61
2023-09-06T08:52:26.471Z,1008.65
2023-09-06T08:53:26.494Z,1008.65
2023-09-06T08:54:26.582Z,1008.64
2023-09-06T08:55:26.545Z,1008.57
2023-09-06T08:56:26.574Z,1008.60
2023-09-06T08:57:26.632Z,1008.62
2023-09-06T08:58:26.695Z,1008.60
2023-09-06T08:59:26.685Z,1008.63
2023-09-06T09:00:26.716Z,1008.65
2023-09-06T09:01:26.882Z,1008.61
2023-09-06T09:02:26.819Z,1008.60
2023-09-06T09:03:26.887Z,1008.63
2023-09-06T09:04:26.945Z,1008.63
2023-09-06T09:05:27.023Z,1008.65
2023-09-06T09:06:26.928Z,1008.65
2023-09-06T09:07:26.877Z,1008.66
2023-09-06T09:08:26.940Z,1008.66
2023-09-06T09:09:26.951Z,1008.69
2023-09-06T09:10:26.968Z,1008.70
2023-09-06T09:11:26.995Z,1008.68
2023-09-06T09:12:27.137Z,1008.65
2023-09-06T09:13:27.315Z,1008.65
2023-09-06T09:14:27.108Z,1008.63
2023-09-06T09:15:27.293Z,1008.62
2023-09-06T09:16:27.259Z,1008.63
2023-09-06T09:17:27.198Z,1008.63
2023-09-06T09:18:27.278Z,1008.63
2023-09-06T09:19:27.333Z,1008.64
2023-09-06T09:20:27.248Z,1008.64
2023-09-06T09:21:27.272Z,1008.63
2023-09-06T09:22:27.338Z,1008.66
2023-09-06T09:23:27.600Z,1008.68
2023-09-06T09:24:27.489Z,1008.70
2023-09-06T09:25:27.385Z,1008.68
2023-09-06T09:26:27.414Z,1008.70
2023-09-06T09:27:27.443Z,1008.71
2023-09-06T09:28:27.571Z,1008.73
2023-09-06T09:29:27.527Z,1008.73
2023-09-06T09:30:27.562Z,1008.73
2023-09-06T09:31:27.587Z,1008.76
2023-09-06T09:32:27.597Z,1008.76
2023-09-06T09:33:27.694Z,1008.73
2023-09-06T09:34:27.633Z,1008.79
2023-09-06T09:35:27.690Z,1008.76
2023-09-06T09:36:27.734Z,1008.73
2023-09-06T09:37:27.717Z,1008.74
2023-09-06T09:38:28.130Z,1008.71
2023-09-06T09:39:27.908Z,1008.70
2023-09-06T09:40:41.730Z,1008.76
2023-09-06T09:41:27.860Z,1008.68
2023-09-06T09:42:27.892Z,1008.71
2023-09-06T09:43:28.127Z,1008.65
2023-09-06T09:44:27.913Z,1008.66
2023-09-06T09:45:28.005Z,1008.68
2023-09-06T09:46:28.096Z,1008.67
2023-09-06T09:48:28.114Z,1008.69
2023-09-06T09:49:28.081Z,1008.68
2023-09-06T09:50:28.086Z,1008.69
2023-09-06T09:51:28.180Z,1008.70
2023-09-06T09:52:28.203Z,1008.69
2023-09-06T09:53:28.172Z,1008.70
2023-09-06T09:54:28.197Z,1008.70
2023-09-06T09:55:28.240Z,1008.68
2023-09-06T09:56:28.281Z,1008.69
2023-09-06T09:57:28.312Z,1008.65
2023-09-06T09:58:28.316Z,1008.66
2023-09-06T09:59:28.377Z,1008.65
2023-09-06T10:00:28.390Z,1008.66
2023-09-06T10:01:28.429Z,1008.66
2023-09-06T10:02:40.216Z,1008.67
2023-09-06T10:03:29.224Z,1008.63
2023-09-06T10:04:28.612Z,1008.67
2023-09-06T10:05:28.541Z,1008.61
2023-09-06T10:06:28.552Z,1008.61
2023-09-06T10:07:39.273Z,1008.59
2023-09-06T10:08:28.601Z,1008.57
2023-09-06T10:09:28.685Z,1008.57
2023-09-06T10:10:28.667Z,1008.57
2023-09-06T10:11:28.677Z,1008.56
2023-09-06T10:12:28.746Z,1008.52
2023-09-06T10:13:29.318Z,1008.50
2023-09-06T10:14:28.769Z,1008.54
2023-09-06T10:15:28.855Z,1008.51
2023-09-06T10:16:28.839Z,1008.51
2023-09-06T10:17:28.883Z,1008.50
2023-09-06T10:18:29.518Z,1008.50
2023-09-06T10:19:32.858Z,1008.49
2023-09-06T10:20:28.942Z,1008.50
2023-09-06T10:21:29.035Z,1008.50
2023-09-06T10:22:28.995Z,1008.50
2023-09-06T10:23:29.063Z,1008.49
2023-09-06T10:24:29.081Z,1008.49
2023-09-06T10:25:29.099Z,1008.49
2023-09-06T10:26:29.135Z,1008.51
2023-09-06T10:27:29.151Z,1008.48
2023-09-06T10:28:29.329Z,1008.47
2023-09-06T10:29:29.231Z,1008.48
2023-09-06T10:30:29.375Z,1008.51
2023-09-06T10:31:29.260Z,1008.50
2023-09-06T10:32:29.336Z,1008.49
2023-09-06T10:33:29.320Z,1008.52
2023-09-06T10:34:29.361Z,1008.49
2023-09-06T10:35:29.369Z,1008.50
2023-09-06T10:36:29.399Z,1008.52
2023-09-06T10:37:29.437Z,1008.53
2023-09-06T10:38:29.735Z,1008.50
2023-09-06T10:39:29.489Z,1008.50
2023-09-06T10:40:29.550Z,1008.55
2023-09-06T10:41:29.565Z,1008.55
2023-09-06T10:42:29.614Z,1008.52
2023-09-06T10:43:29.631Z,1008.53
2023-09-06T10:44:29.631Z,1008.51
2023-09-06T10:45:29.691Z,1008.55
2023-09-06T10:46:29.859Z,1008.51
2023-09-06T10:47:29.729Z,1008.54
2023-09-06T10:48:29.944Z,1008.53
2023-09-06T10:49:32.747Z,1008.49
2023-09-06T10:50:29.804Z,1008.54
2023-09-06T10:51:29.868Z,1008.49
2023-09-06T10:52:29.891Z,1008.48
2023-09-06T10:53:30.083Z,1008.49
2023-09-06T10:54:29.943Z,1008.49
2023-09-06T10:55:29.990Z,1008.53
2023-09-06T10:56:30.020Z,1008.55
2023-09-06T10:57:30.018Z,1008.52
2023-09-06T10:58:30.453Z,1008.50
2023-09-06T10:59:30.078Z,1008.48
2023-09-06T11:00:30.094Z,1008.46
2023-09-06T11:01:34.933Z,1008.47
2023-09-06T11:02:30.351Z,1008.47
2023-09-06T11:03:30.340Z,1008.45
2023-09-06T11:04:30.266Z,1008.47
2023-09-06T11:05:30.326Z,1008.46
2023-09-06T11:06:30.312Z,1008.41
2023-09-06T11:07:43.214Z,1008.41
2023-09-06T11:08:30.659Z,1008.40
2023-09-06T11:09:30.364Z,1008.43
2023-09-06T11:10:30.440Z,1008.42
2023-09-06T11:11:30.441Z,1008.39
2023-09-06T11:12:30.452Z,1008.38
2023-09-06T11:13:30.594Z,1008.39
2023-09-06T11:14:30.510Z,1008.40
2023-09-06T11:15:30.571Z,1008.38
2023-09-06T11:16:30.573Z,1008.38
2023-09-06T11:17:30.702Z,1008.39
2023-09-06T11:18:31.095Z,1008.41
2023-09-06T11:19:30.661Z,1008.41
2023-09-06T11:20:30.691Z,1008.39
2023-09-06T11:21:30.719Z,1008.34
2023-09-06T11:22:30.789Z,1008.41
2023-09-06T11:23:30.805Z,1008.41
2023-09-06T11:24:30.809Z,1008.39
2023-09-06T11:25:30.868Z,1008.40
2023-09-06T11:26:30.886Z,1008.36
2023-09-06T11:27:30.900Z,1008.35
2023-09-06T11:28:31.244Z,1008.37
2023-09-06T11:29:30.995Z,1008.36
2023-09-06T11:30:30.987Z,1008.31
2023-09-06T11:31:31.212Z,1008.34
2023-09-06T11:32:31.080Z,1008.34
2023-09-06T11:33:31.189Z,1008.32
2023-09-06T11:34:31.190Z,1008.27
2023-09-06T11:35:31.157Z,1008.33
2023-09-06T11:36:31.175Z,1008.31
2023-09-06T11:37:31.231Z,1008.29
2023-09-06T11:38:31.815Z,1008.29
2023-09-06T11:39:31.277Z,1008.28
2023-09-06T11:40:31.326Z,1008.27
2023-09-06T11:41:31.338Z,1008.26
2023-09-06T11:42:31.351Z,1008.25
2023-09-06T11:43:31.389Z,1008.29
2023-09-06T11:44:31.444Z,1008.30
2023-09-06T11:45:31.480Z,1008.27
2023-09-06T11:46:31.579Z,1008.28
2023-09-06T11:47:31.621Z,1008.26
2023-09-06T11:48:31.662Z,1008.27
2023-09-06T11:49:31.621Z,1008.26
2023-09-06T11:50:32.110Z,1008.25
2023-09-06T11:51:31.623Z,1008.27
2023-09-06T11:52:34.645Z,1008.25
2023-09-06T11:53:31.681Z,1008.23
2023-09-06T11:54:31.709Z,1008.23
2023-09-06T11:55:31.777Z,1008.25
2023-09-06T11:56:32.157Z,1008.24
2023-09-06T11:57:31.827Z,1008.23
2023-09-06T11:58:32.041Z,1008.20
2023-09-06T11:59:31.866Z,1008.20
2023-09-06T12:00:32.002Z,1008.22
2023-09-06T12:01:32.003Z,1008.19
2023-09-06T12:02:32.017Z,1008.18
2023-09-06T12:03:32.171Z,1008.24
2023-09-06T12:04:32.019Z,1008.21
2023-09-06T12:05:46.179Z,1008.20
2023-09-06T12:06:32.178Z,1008.19